San Francisco, California
Current Conditions -  °F | °C
As of 3:35 AM on Saturday 25 Oct 2014 (Local Time) from KSFO Reporting Station
Overcast Overcast  
Wind Chill: 70°   Ceiling: 2900
Heat Index: 70°   Visibility: 10mi
Dew Point: 57°   Wind: 18mph
Humidity: 64%   Direction: 160°SSE
Pressure: 29.89"   Gusts: 26mph
Location:  37.78°N, 122.42°W
Report Text: KSFO 251035Z 16016G23KT 10SM BKN029 OVC039 21/14 A2989 RMK AO2 $
Loading
Personal Weather Stations






























Interactive Weather Map New forecast layout! Learn more

10-Day Weather Forecast

Advertisements
Track Severe Weather on mobile